createdAt,value
2017-08-02T00:00:43.395Z,21.70
2017-08-02T00:03:10.805Z,21.70
2017-08-02T00:05:38.236Z,21.70
2017-08-02T00:08:05.668Z,21.70
2017-08-02T00:10:33.859Z,21.80
2017-08-02T00:13:01.297Z,21.80
2017-08-02T00:15:28.720Z,21.90
2017-08-02T00:17:56.135Z,21.90
2017-08-02T00:20:23.571Z,21.80
2017-08-02T00:22:51.763Z,21.70
2017-08-02T00:25:19.236Z,21.70
2017-08-02T00:27:46.667Z,21.70
2017-08-02T00:30:14.115Z,21.70
2017-08-02T00:32:41.606Z,21.70
2017-08-02T00:35:09.043Z,21.60
2017-08-02T00:37:36.460Z,21.60
2017-08-02T00:40:03.888Z,21.60
2017-08-02T00:42:31.307Z,21.50
2017-08-02T00:44:58.724Z,21.50
2017-08-02T00:47:26.147Z,21.40
2017-08-02T00:49:53.579Z,21.40
2017-08-02T00:52:21.011Z,21.30
2017-08-02T00:54:48.611Z,21.30
2017-08-02T00:57:16.043Z,21.20
2017-08-02T00:59:43.452Z,21.20
2017-08-02T01:02:10.880Z,21.20
2017-08-02T01:04:38.314Z,21.20
2017-08-02T01:07:05.771Z,21.30
2017-08-02T01:09:33.448Z,21.20
2017-08-02T01:12:00.868Z,21.20
2017-08-02T01:14:28.291Z,21.30
2017-08-02T01:16:55.818Z,21.30
2017-08-02T01:19:23.264Z,21.20
2017-08-02T01:21:50.673Z,21.20
2017-08-02T01:24:18.920Z,21.20
2017-08-02T01:26:46.341Z,21.10
2017-08-02T01:29:13.768Z,21.10
2017-08-02T01:31:41.195Z,21.10
2017-08-02T01:34:08.639Z,21.10
2017-08-02T01:36:36.059Z,21.10
2017-08-02T01:39:03.509Z,21.10
2017-08-02T01:41:30.923Z,21.10
2017-08-02T01:43:58.352Z,21.10
2017-08-02T01:46:25.779Z,21.10
2017-08-02T01:48:53.194Z,21.10
2017-08-02T01:51:20.623Z,21.10
2017-08-02T01:53:48.048Z,21.10
2017-08-02T01:56:15.471Z,21.10
2017-08-02T01:58:42.896Z,21.00
2017-08-02T02:01:10.328Z,21.00
2017-08-02T02:03:37.740Z,21.10
2017-08-02T02:06:05.168Z,21.10
2017-08-02T02:08:32.587Z,21.00
2017-08-02T02:11:00.011Z,21.00
2017-08-02T02:13:28.199Z,21.00
2017-08-02T02:15:55.620Z,21.00
2017-08-02T02:18:23.040Z,21.00
2017-08-02T02:20:50.467Z,21.00
2017-08-02T02:23:17.879Z,21.00
2017-08-02T02:25:45.336Z,21.00
2017-08-02T02:28:12.747Z,21.00
2017-08-02T02:30:40.172Z,21.00
2017-08-02T02:33:07.835Z,21.00
2017-08-02T02:35:35.338Z,21.00
2017-08-02T02:38:02.780Z,21.00
2017-08-02T02:40:30.187Z,21.00
2017-08-02T02:42:57.616Z,21.00
2017-08-02T02:45:25.044Z,21.00
2017-08-02T02:47:52.467Z,20.90
2017-08-02T02:50:20.655Z,21.00
2017-08-02T02:52:48.086Z,20.90
2017-08-02T02:55:15.499Z,21.00
2017-08-02T02:57:42.923Z,21.00
2017-08-02T03:00:10.343Z,21.00
2017-08-02T03:02:37.760Z,21.00
2017-08-02T03:05:05.195Z,21.10
2017-08-02T03:07:32.632Z,21.10
2017-08-02T03:10:00.051Z,21.20
2017-08-02T03:12:27.462Z,21.20
2017-08-02T03:14:54.904Z,21.20
2017-08-02T03:17:22.328Z,21.20
2017-08-02T03:19:49.764Z,21.20
2017-08-02T03:22:17.176Z,21.20
2017-08-02T03:24:45.362Z,21.30
2017-08-02T03:27:12.801Z,21.30
2017-08-02T03:29:40.239Z,21.30
2017-08-02T03:32:07.660Z,21.20
2017-08-02T03:34:35.072Z,21.20
2017-08-02T03:37:02.507Z,21.20
2017-08-02T03:39:30.711Z,21.10
2017-08-02T03:41:58.159Z,21.10
2017-08-02T03:44:25.572Z,21.10
2017-08-02T03:46:52.995Z,21.10
2017-08-02T03:49:20.414Z,21.10
2017-08-02T03:51:48.628Z,21.10
2017-08-02T03:54:16.043Z,21.10
2017-08-02T03:56:43.473Z,21.10
2017-08-02T03:59:10.894Z,21.10
2017-08-02T04:01:38.335Z,21.10
2017-08-02T04:04:05.751Z,21.10
2017-08-02T04:06:33.247Z,21.10
2017-08-02T04:09:00.671Z,21.00
2017-08-02T04:11:28.851Z,21.00
2017-08-02T04:13:56.283Z,21.00
2017-08-02T04:16:23.699Z,21.00
2017-08-02T04:18:51.132Z,20.90
2017-08-02T04:21:18.556Z,21.00
2017-08-02T04:23:45.983Z,20.90
2017-08-02T04:26:13.527Z,20.90
2017-08-02T04:28:41.010Z,20.80
2017-08-02T04:31:08.423Z,20.80
2017-08-02T04:33:35.877Z,20.80
2017-08-02T04:36:03.463Z,20.80
2017-08-02T04:38:30.999Z,20.80
2017-08-02T04:40:58.400Z,20.80
2017-08-02T04:43:25.814Z,20.90
2017-08-02T04:45:53.291Z,20.90
2017-08-02T04:48:20.711Z,21.10
2017-08-02T04:50:48.143Z,21.10
2017-08-02T04:53:15.563Z,21.10
2017-08-02T04:55:43.036Z,21.10
2017-08-02T04:58:10.471Z,21.10
2017-08-02T05:00:37.900Z,21.10
2017-08-02T05:03:05.315Z,21.20
2017-08-02T05:05:32.743Z,21.20
2017-08-02T05:08:00.195Z,21.30
2017-08-02T05:10:27.631Z,21.30
2017-08-02T05:12:55.060Z,21.30
2017-08-02T05:15:22.471Z,21.40
2017-08-02T05:17:49.899Z,21.30
2017-08-02T05:20:17.316Z,21.40
2017-08-02T05:22:44.751Z,21.40
2017-08-02T05:25:12.177Z,21.40
2017-08-02T05:27:39.599Z,21.40
2017-08-02T05:30:07.011Z,21.50
2017-08-02T05:32:34.439Z,21.50
2017-08-02T05:35:01.860Z,21.60
2017-08-02T05:37:29.551Z,21.60
2017-08-02T05:39:56.978Z,21.60
2017-08-02T05:42:24.416Z,21.70
2017-08-02T05:44:51.834Z,21.80
2017-08-02T05:47:19.379Z,21.80
2017-08-02T05:49:46.796Z,21.80
2017-08-02T05:52:14.290Z,21.80
2017-08-02T05:54:41.712Z,21.80
2017-08-02T05:57:09.155Z,21.80
2017-08-02T05:59:36.575Z,21.80
2017-08-02T06:02:04.018Z,21.90
2017-08-02T06:04:31.439Z,22.00
2017-08-02T06:06:58.871Z,22.10
2017-08-02T06:09:26.291Z,22.20
2017-08-02T06:11:53.712Z,22.30
2017-08-02T06:14:21.407Z,22.30
2017-08-02T06:16:48.815Z,22.40
2017-08-02T06:19:16.243Z,22.60
2017-08-02T06:21:43.656Z,22.70
2017-08-02T06:24:11.099Z,22.80
2017-08-02T06:26:38.519Z,22.90
2017-08-02T06:29:05.942Z,23.00
2017-08-02T06:31:33.375Z,23.00
2017-08-02T06:34:00.812Z,23.00
2017-08-02T06:36:28.311Z,22.80
2017-08-02T06:38:55.731Z,22.80
2017-08-02T06:41:23.178Z,22.70
2017-08-02T06:43:50.591Z,22.70
2017-08-02T06:46:18.017Z,22.60
2017-08-02T06:48:45.435Z,22.60
2017-08-02T06:51:12.859Z,22.60
2017-08-02T06:53:40.296Z,22.70
2017-08-02T06:56:07.735Z,22.70
2017-08-02T06:58:35.186Z,22.60
2017-08-02T07:01:02.599Z,22.50
2017-08-02T07:03:30.016Z,22.60
2017-08-02T07:05:57.452Z,22.70
2017-08-02T07:08:24.872Z,22.80
2017-08-02T07:10:52.291Z,22.80
2017-08-02T07:13:19.724Z,22.80
2017-08-02T07:15:47.180Z,22.80
2017-08-02T07:18:14.599Z,22.90
2017-08-02T07:20:42.015Z,23.00
2017-08-02T07:23:09.452Z,23.20
2017-08-02T07:25:37.020Z,23.30
2017-08-02T07:28:04.448Z,23.30
2017-08-02T07:30:31.867Z,23.30
2017-08-02T07:32:58.839Z,23.30
2017-08-02T07:35:26.255Z,23.30
2017-08-02T07:37:53.695Z,23.30
2017-08-02T07:40:21.111Z,23.30
2017-08-02T07:42:48.541Z,23.40
2017-08-02T07:45:15.960Z,23.50
2017-08-02T07:47:44.004Z,23.70
2017-08-02T07:50:11.411Z,23.90
2017-08-02T07:52:39.039Z,23.90
2017-08-02T07:55:06.447Z,23.90
2017-08-02T07:57:33.879Z,24.00
2017-08-02T08:00:01.309Z,24.00
2017-08-02T08:02:28.731Z,24.00
2017-08-02T08:04:56.155Z,24.10
2017-08-02T08:07:24.347Z,24.00
2017-08-02T08:09:51.767Z,24.00
2017-08-02T08:12:19.185Z,24.10
2017-08-02T08:14:46.611Z,24.20
2017-08-02T08:17:14.035Z,24.10
2017-08-02T08:19:41.481Z,24.00
2017-08-02T08:22:08.890Z,24.10
2017-08-02T08:24:36.489Z,24.10
2017-08-02T08:27:03.902Z,24.00
2017-08-02T08:29:31.335Z,24.10
2017-08-02T08:31:59.520Z,24.30
2017-08-02T08:34:26.959Z,24.30
2017-08-02T08:36:54.375Z,24.30
2017-08-02T08:39:21.807Z,24.30
2017-08-02T08:41:49.219Z,24.40
2017-08-02T08:44:16.652Z,24.40
2017-08-02T08:46:44.078Z,24.50
2017-08-02T08:49:11.512Z,24.40
2017-08-02T08:51:38.942Z,24.50
2017-08-02T08:54:06.354Z,24.50
2017-08-02T08:56:33.788Z,24.50
2017-08-02T08:59:01.219Z,24.50
2017-08-02T09:01:28.742Z,24.60
2017-08-02T09:03:56.171Z,24.80
2017-08-02T09:06:23.620Z,24.80
2017-08-02T09:08:51.047Z,24.80
2017-08-02T09:11:18.488Z,24.80
2017-08-02T09:13:45.907Z,24.90
2017-08-02T09:16:13.327Z,24.90
2017-08-02T09:18:40.944Z,25.00
2017-08-02T09:21:08.360Z,25.00
2017-08-02T09:23:35.802Z,25.00
2017-08-02T09:26:03.252Z,24.90
2017-08-02T09:28:30.712Z,24.90
2017-08-02T09:30:58.184Z,25.00
2017-08-02T09:33:25.632Z,25.00
2017-08-02T09:35:53.052Z,25.00
2017-08-02T09:38:20.492Z,25.20
2017-08-02T09:40:47.911Z,25.20
2017-08-02T09:43:15.449Z,25.20
2017-08-02T09:45:42.851Z,25.20
2017-08-02T09:48:10.292Z,25.20
2017-08-02T09:50:37.719Z,25.40
2017-08-02T09:53:05.176Z,25.50
2017-08-02T09:55:32.591Z,25.70
2017-08-02T09:58:00.015Z,25.80
2017-08-02T10:00:27.455Z,26.00
2017-08-02T10:02:54.905Z,26.10
2017-08-02T10:05:22.323Z,26.20
2017-08-02T10:07:49.744Z,26.10
2017-08-02T10:10:17.175Z,26.30
2017-08-02T10:12:44.587Z,26.50
2017-08-02T10:15:12.018Z,26.60
2017-08-02T10:17:39.559Z,26.60
2017-08-02T10:20:06.994Z,26.60
2017-08-02T10:22:34.411Z,26.70
2017-08-02T10:25:01.832Z,26.90
2017-08-02T10:27:29.252Z,27.00
2017-08-02T10:29:56.680Z,26.90
2017-08-02T10:32:24.104Z,27.00
2017-08-02T10:34:51.549Z,27.10
2017-08-02T10:37:18.959Z,27.10
2017-08-02T10:39:46.584Z,27.00
2017-08-02T10:42:14.228Z,27.10
2017-08-02T10:44:41.663Z,27.20
2017-08-02T10:47:09.351Z,27.20
2017-08-02T10:49:36.772Z,27.30
2017-08-02T10:52:04.196Z,27.30
2017-08-02T10:54:32.388Z,27.40
2017-08-02T10:56:59.812Z,27.40
2017-08-02T10:59:27.248Z,27.40
2017-08-02T11:01:54.679Z,27.50
2017-08-02T11:04:22.101Z,27.50
2017-08-02T11:06:49.532Z,27.40
2017-08-02T11:09:16.973Z,27.60
2017-08-02T11:11:44.379Z,27.70
2017-08-02T11:14:11.799Z,27.80
2017-08-02T11:16:39.231Z,27.90
2017-08-02T11:19:06.649Z,28.10
2017-08-02T11:21:34.072Z,28.20
2017-08-02T11:24:01.492Z,28.20
2017-08-02T11:26:28.951Z,28.10
2017-08-02T11:28:56.355Z,28.10
2017-08-02T11:31:23.784Z,27.90
2017-08-02T11:33:51.316Z,28.10
2017-08-02T11:36:18.727Z,28.50
2017-08-02T11:38:46.163Z,28.80
2017-08-02T11:41:13.587Z,29.00
2017-08-02T11:43:41.012Z,29.00
2017-08-02T11:46:08.456Z,29.10
2017-08-02T11:48:35.867Z,29.10
2017-08-02T11:51:03.279Z,29.10
2017-08-02T11:53:30.738Z,29.10
2017-08-02T11:55:58.164Z,29.20
2017-08-02T11:58:25.592Z,29.40
2017-08-02T12:00:53.003Z,29.60
2017-08-02T12:03:20.438Z,29.70
2017-08-02T12:05:47.864Z,29.80
2017-08-02T12:08:15.296Z,29.70
2017-08-02T12:10:42.728Z,29.70
2017-08-02T12:13:10.157Z,30.20
2017-08-02T12:15:38.344Z,30.80
2017-08-02T12:18:05.767Z,30.80
2017-08-02T12:20:33.192Z,30.90
2017-08-02T12:23:00.652Z,30.80
2017-08-02T12:25:28.087Z,31.00
2017-08-02T12:27:55.517Z,31.40
2017-08-02T12:30:23.703Z,31.90
2017-08-02T12:32:51.123Z,31.80
2017-08-02T12:35:18.539Z,31.50
2017-08-02T12:37:45.990Z,31.10
2017-08-02T12:40:13.406Z,30.80
2017-08-02T12:42:41.595Z,30.70
2017-08-02T12:45:09.008Z,30.70
2017-08-02T12:47:36.443Z,31.00
2017-08-02T12:50:03.876Z,31.30
2017-08-02T12:52:31.295Z,31.60
2017-08-02T12:54:59.472Z,31.60
2017-08-02T12:57:26.975Z,31.50
2017-08-02T12:59:54.387Z,31.20
2017-08-02T13:02:21.811Z,31.10
2017-08-02T13:04:49.247Z,30.90
2017-08-02T13:07:16.682Z,31.10
2017-08-02T13:09:44.086Z,32.00
2017-08-02T13:12:11.517Z,33.10
2017-08-02T13:14:38.923Z,34.10
2017-08-02T13:17:06.356Z,34.90
2017-08-02T13:19:33.784Z,35.00
2017-08-02T13:22:01.224Z,34.80
2017-08-02T13:24:28.686Z,35.00
2017-08-02T13:26:56.107Z,35.90
2017-08-02T13:29:23.531Z,37.00
2017-08-02T13:31:50.960Z,37.60
2017-08-02T13:34:18.514Z,37.80
2017-08-02T13:36:45.936Z,38.50
2017-08-02T13:39:13.372Z,39.10
2017-08-02T13:41:40.790Z,39.20
2017-08-02T13:44:08.212Z,39.30
2017-08-02T13:46:35.620Z,39.50
2017-08-02T13:49:03.056Z,39.50
2017-08-02T13:51:30.462Z,39.10
2017-08-02T13:53:57.888Z,38.50
2017-08-02T13:56:25.323Z,38.20
2017-08-02T13:58:52.731Z,38.30
2017-08-02T14:01:20.157Z,38.70
2017-08-02T14:03:47.618Z,38.90
2017-08-02T14:06:15.024Z,38.50
2017-08-02T14:08:42.436Z,37.70
2017-08-02T14:11:10.615Z,37.20
2017-08-02T14:13:38.072Z,37.20
2017-08-02T14:16:05.501Z,36.80
2017-08-02T14:18:32.920Z,36.40
2017-08-02T14:21:00.340Z,35.80
2017-08-02T14:23:28.514Z,35.70
2017-08-02T14:25:55.944Z,35.70
2017-08-02T14:28:23.372Z,36.10
2017-08-02T14:30:50.801Z,36.50
2017-08-02T14:33:18.210Z,36.70
2017-08-02T14:35:45.643Z,35.90
2017-08-02T14:38:13.072Z,35.60
2017-08-02T14:40:40.494Z,36.00
2017-08-02T14:43:07.911Z,36.40
2017-08-02T14:45:35.520Z,36.70
2017-08-02T14:48:03.775Z,37.30
2017-08-02T14:50:31.204Z,37.30
2017-08-02T14:52:58.621Z,36.80
2017-08-02T14:55:26.063Z,36.70
2017-08-02T14:57:53.479Z,36.90
2017-08-02T15:00:22.039Z,38.10
2017-08-02T15:02:49.479Z,38.70
2017-08-02T15:05:16.912Z,39.10
2017-08-02T15:07:44.337Z,39.40
2017-08-02T15:10:11.739Z,39.60
2017-08-02T15:12:39.171Z,39.70
2017-08-02T15:15:06.583Z,39.40
2017-08-02T15:17:34.008Z,38.70
2017-08-02T15:20:01.452Z,38.10
2017-08-02T15:22:28.893Z,37.50
2017-08-02T15:24:57.083Z,35.80
2017-08-02T15:27:24.499Z,35.80
2017-08-02T15:29:51.919Z,35.40
2017-08-02T15:32:19.347Z,34.90
2017-08-02T15:34:46.775Z,34.60
2017-08-02T15:37:14.187Z,34.20
2017-08-02T15:39:41.624Z,34.00
2017-08-02T15:42:09.069Z,34.50
2017-08-02T15:44:36.496Z,35.00
2017-08-02T15:47:03.912Z,34.90
2017-08-02T15:49:31.343Z,34.50
2017-08-02T15:51:58.751Z,34.60
2017-08-02T15:54:26.175Z,34.60
2017-08-02T15:56:53.639Z,34.70
2017-08-02T15:59:21.052Z,34.90
2017-08-02T16:01:48.535Z,34.80
2017-08-02T16:04:15.960Z,35.00
2017-08-02T16:06:44.164Z,35.80
2017-08-02T16:09:11.583Z,35.70
2017-08-02T16:11:39.007Z,36.70
2017-08-02T16:14:07.421Z,36.60
2017-08-02T16:16:34.835Z,36.40
2017-08-02T16:19:02.265Z,36.60
2017-08-02T16:21:30.196Z,36.70
2017-08-02T16:23:57.694Z,36.90
2017-08-02T16:26:25.375Z,36.90
2017-08-02T16:28:53.890Z,36.80
2017-08-02T16:31:22.432Z,36.90
2017-08-02T16:33:49.851Z,36.50
2017-08-02T16:36:17.264Z,35.60
2017-08-02T16:38:44.695Z,35.20
2017-08-02T16:41:12.116Z,35.00
2017-08-02T16:43:39.656Z,34.80
2017-08-02T16:46:07.111Z,34.70
2017-08-02T16:48:34.815Z,34.40
2017-08-02T16:51:02.216Z,33.90
2017-08-02T16:53:29.747Z,33.50
2017-08-02T16:55:57.221Z,33.20
2017-08-02T16:58:25.052Z,32.80
2017-08-02T17:00:52.938Z,32.60
2017-08-02T17:03:20.449Z,32.40
2017-08-02T17:05:47.968Z,32.20
2017-08-02T17:08:15.380Z,32.10
2017-08-02T17:10:43.284Z,31.90
2017-08-02T17:13:10.691Z,31.70
2017-08-02T17:15:38.332Z,31.50
2017-08-02T17:18:05.768Z,31.40
2017-08-02T17:20:33.183Z,31.30
2017-08-02T17:23:00.712Z,31.40
2017-08-02T17:25:28.267Z,31.30
2017-08-02T17:27:55.685Z,31.30
2017-08-02T17:30:23.100Z,31.10
2017-08-02T17:32:50.519Z,31.10
2017-08-02T17:35:18.729Z,30.60
2017-08-02T17:37:46.236Z,30.50
2017-08-02T17:40:13.636Z,30.40
2017-08-02T17:42:41.130Z,30.20
2017-08-02T17:45:08.564Z,30.10
2017-08-02T17:47:36.015Z,30.10
2017-08-02T17:50:03.628Z,30.10
2017-08-02T17:52:31.393Z,30.10
2017-08-02T17:54:58.930Z,30.20
2017-08-02T17:57:26.488Z,30.20
2017-08-02T17:59:53.902Z,30.20
2017-08-02T18:02:21.500Z,30.10
2017-08-02T18:04:49.175Z,30.20
2017-08-02T18:07:17.201Z,30.10
2017-08-02T18:09:46.018Z,29.90
2017-08-02T18:12:13.427Z,29.90
2017-08-02T18:14:40.877Z,29.80
2017-08-02T18:17:08.486Z,29.70
2017-08-02T18:19:36.902Z,29.70
2017-08-02T18:22:04.323Z,29.60
2017-08-02T18:24:31.792Z,29.50
2017-08-02T18:26:59.204Z,29.30
2017-08-02T18:29:26.639Z,29.20
2017-08-02T18:31:54.047Z,29.10
2017-08-02T18:34:21.465Z,29.20
2017-08-02T18:36:48.901Z,29.10
2017-08-02T18:39:16.358Z,29.00
2017-08-02T18:41:43.773Z,28.80
2017-08-02T18:44:11.195Z,28.70
2017-08-02T18:46:38.629Z,28.50
2017-08-02T18:49:06.039Z,28.50
2017-08-02T18:51:34.427Z,28.40
2017-08-02T18:54:01.852Z,28.30
2017-08-02T18:56:29.286Z,28.30
2017-08-02T18:58:56.709Z,28.30
2017-08-02T19:01:24.903Z,28.30
2017-08-02T19:03:52.321Z,28.20
2017-08-02T19:06:19.755Z,28.40
2017-08-02T19:11:21.793Z,28.10
2017-08-02T19:13:49.212Z,28.10
2017-08-02T19:16:16.635Z,28.00
2017-08-02T19:18:44.079Z,27.90
2017-08-02T19:21:11.482Z,27.80
2017-08-02T19:23:39.688Z,27.90
2017-08-02T19:26:07.115Z,27.90
2017-08-02T19:28:34.536Z,27.80
2017-08-02T19:31:01.955Z,27.80
2017-08-02T19:33:29.496Z,27.70
2017-08-02T19:35:56.990Z,27.60
2017-08-02T19:38:24.442Z,27.50
2017-08-02T19:40:51.855Z,27.40
2017-08-02T19:43:19.283Z,27.30
2017-08-02T19:45:46.712Z,27.20
2017-08-02T19:48:14.134Z,27.20
2017-08-02T19:50:41.552Z,27.00
2017-08-02T19:53:09.005Z,27.00
2017-08-02T19:55:36.436Z,26.90
2017-08-02T19:58:03.858Z,26.80
2017-08-02T20:00:31.287Z,26.80
2017-08-02T20:02:58.712Z,26.70
2017-08-02T20:05:26.143Z,26.70
2017-08-02T20:07:53.559Z,26.60
2017-08-02T20:10:21.003Z,26.50
2017-08-02T20:12:48.423Z,26.60
2017-08-02T20:15:15.856Z,26.70
2017-08-02T20:17:43.268Z,26.60
2017-08-02T20:20:10.695Z,26.60
2017-08-02T20:22:38.128Z,26.50
2017-08-02T20:25:05.572Z,26.40
2017-08-02T20:27:32.991Z,26.40
2017-08-02T20:30:00.720Z,26.30
2017-08-02T20:32:28.142Z,26.20
2017-08-02T20:34:55.556Z,26.20
2017-08-02T20:37:22.980Z,26.10
2017-08-02T20:39:50.409Z,26.10
2017-08-02T20:42:17.847Z,26.10
2017-08-02T20:44:46.064Z,25.80
2017-08-02T20:47:13.496Z,25.80
2017-08-02T20:49:40.912Z,25.60
2017-08-02T20:52:08.339Z,25.50
2017-08-02T20:54:35.763Z,25.40
2017-08-02T20:57:03.200Z,25.30
2017-08-02T20:59:31.390Z,25.10
2017-08-02T21:01:58.830Z,25.10
2017-08-02T21:04:26.243Z,25.00
2017-08-02T21:06:53.676Z,25.00
2017-08-02T21:09:21.087Z,24.90
2017-08-02T21:11:49.300Z,24.80
2017-08-02T21:14:16.749Z,24.80
2017-08-02T21:16:44.219Z,24.80
2017-08-02T21:19:11.659Z,24.80
2017-08-02T21:21:39.092Z,24.80
2017-08-02T21:24:06.511Z,24.80
2017-08-02T21:26:33.936Z,24.80
2017-08-02T21:29:01.363Z,24.80
2017-08-02T21:31:29.556Z,24.80
2017-08-02T21:33:56.983Z,24.80
2017-08-02T21:36:24.412Z,24.90
2017-08-02T21:38:51.855Z,24.90
2017-08-02T21:41:19.280Z,24.80
2017-08-02T21:43:46.710Z,24.90
2017-08-02T21:46:14.908Z,24.90
2017-08-02T21:48:42.335Z,24.90
2017-08-02T21:51:09.752Z,24.90
2017-08-02T21:53:37.192Z,24.90
2017-08-02T21:56:04.639Z,24.90
2017-08-02T21:58:32.071Z,24.80
2017-08-02T22:00:59.499Z,24.80
2017-08-02T22:03:26.932Z,24.80
2017-08-02T22:05:54.380Z,24.70
2017-08-02T22:08:21.932Z,24.60
2017-08-02T22:10:49.364Z,24.60
2017-08-02T22:13:16.792Z,24.60
2017-08-02T22:15:44.223Z,24.50
2017-08-02T22:18:11.655Z,24.50
2017-08-02T22:20:39.092Z,24.40
2017-08-02T22:23:06.688Z,24.40
2017-08-02T22:25:34.131Z,24.50
2017-08-02T22:28:01.551Z,24.50
2017-08-02T22:30:28.993Z,24.50
2017-08-02T22:32:57.192Z,24.30
2017-08-02T22:35:24.624Z,24.30
2017-08-02T22:37:52.051Z,24.30
2017-08-02T22:40:19.475Z,24.40
2017-08-02T22:42:46.935Z,24.50
2017-08-02T22:45:14.405Z,24.50
2017-08-02T22:47:41.819Z,24.50
2017-08-02T22:50:09.252Z,24.40
2017-08-02T22:52:37.447Z,24.40
2017-08-02T22:55:04.859Z,24.40
2017-08-02T22:57:32.287Z,24.40
2017-08-02T22:59:59.713Z,24.40
2017-08-02T23:02:27.139Z,24.40
2017-08-02T23:04:55.331Z,24.30
2017-08-02T23:07:22.768Z,24.30
2017-08-02T23:09:50.183Z,24.30
2017-08-02T23:12:17.611Z,24.30
2017-08-02T23:14:45.043Z,24.30
2017-08-02T23:17:13.223Z,24.20
2017-08-02T23:19:40.642Z,24.20
2017-08-02T23:22:08.088Z,24.20
2017-08-02T23:24:35.515Z,24.20
2017-08-02T23:27:02.931Z,24.10
2017-08-02T23:32:04.920Z,24.10
2017-08-02T23:34:33.111Z,24.10
2017-08-02T23:37:00.539Z,24.10
2017-08-02T23:39:27.979Z,24.00
2017-08-02T23:41:55.403Z,24.00
2017-08-02T23:44:22.955Z,24.00
2017-08-02T23:46:50.384Z,24.00
2017-08-02T23:49:17.811Z,24.00
2017-08-02T23:51:45.231Z,23.90
2017-08-02T23:54:12.663Z,23.90
2017-08-02T23:56:40.083Z,23.90
2017-08-02T23:59:08.287Z,23.90
